Time;durP1;ratioP1;P1;durP2;ratioP2;P2;SDS_P1;SDS_P2;PMS_P1;PMS_P2;Temp;Humidity;BMP_temperature;BMP_pressure;BME280_temperature;BME280_humidity;BME280_pressure;Samples;Min_cycle;Max_cycle;Signal;HPM_P1;HPM_P2
2021/05/02 01:03:05;;;;;;;2.65;2.22;;;18.00;46.80;;;;;;5046585;23;20236;-82
2021/05/02 01:05:33;;;;;;;3.17;2.28;;;18.00;46.90;;;;;;4935865;28;20543;-82
2021/05/02 01:08:18;;;;;;;2.70;2.10;;;18.00;47.00;;;;;;4951946;28;20176;-82
2021/05/02 01:10:46;;;;;;;3.20;2.50;;;18.00;46.90;;;;;;4966709;28;20196;-82
2021/05/02 01:13:21;;;;;;;2.53;2.05;;;18.00;46.90;;;;;;4951236;28;20216;-82
2021/05/02 01:15:50;;;;;;;3.22;2.15;;;18.00;46.80;;;;;;4968239;28;20191;-82
2021/05/02 01:18:19;;;;;;;3.60;2.10;;;18.00;46.90;;;;;;4967997;28;20153;-82
2021/05/02 01:20:46;;;;;;;2.35;2.00;;;18.00;46.90;;;;;;4953190;28;20163;-82
2021/05/02 01:23:18;;;;;;;2.80;2.10;;;18.00;46.80;;;;;;4953105;28;20161;-81
2021/05/02 01:25:46;;;;;;;3.10;2.20;;;18.00;46.90;;;;;;4985028;28;20172;-82
2021/05/02 01:28:11;;;;;;;2.17;1.98;;;18.00;46.80;;;;;;4967982;28;20612;-82
2021/05/02 01:30:38;;;;;;;3.03;2.20;;;18.00;47.00;;;;;;4968040;28;20156;-82
2021/05/02 01:33:06;;;;;;;2.80;2.00;;;18.00;46.90;;;;;;4936096;28;20192;-81
2021/05/02 01:35:32;;;;;;;3.22;2.25;;;17.90;46.80;;;;;;4952499;28;20187;-82
2021/05/02 01:38:01;;;;;;;2.53;2.30;;;18.00;47.00;;;;;;4951837;28;20536;-83
2021/05/02 01:40:27;;;;;;;2.47;2.08;;;18.00;46.90;;;;;;4969683;28;20185;-82
2021/05/02 01:42:52;;;;;;;2.63;2.10;;;18.00;46.90;;;;;;4936451;28;20165;-82
2021/05/02 01:45:19;;;;;;;2.42;2.20;;;18.00;46.70;;;;;;4967403;28;20160;-81
2021/05/02 01:47:50;;;;;;;2.40;2.08;;;18.00;46.90;;;;;;4953184;28;20168;-82
2021/05/02 01:50:16;;;;;;;2.75;2.20;;;18.00;47.60;;;;;;4952214;28;20180;-82
2021/05/02 01:52:46;;;;;;;2.25;2.00;;;18.00;46.90;;;;;;4936505;28;20176;-82
2021/05/02 01:55:13;;;;;;;3.80;2.30;;;18.00;47.10;;;;;;4952030;28;20698;-82
2021/05/02 01:57:40;;;;;;;3.03;2.08;;;18.00;46.90;;;;;;4936386;28;20173;-82
2021/05/02 02:00:08;;;;;;;3.75;2.17;;;17.90;46.90;;;;;;4951640;28;20193;-82
2021/05/02 02:02:34;;;;;;;3.38;2.13;;;17.90;47.10;;;;;;4967737;28;20292;-82
2021/05/02 02:05:01;;;;;;;3.13;2.20;;;17.90;47.00;;;;;;4951058;28;20196;-82
2021/05/02 02:07:29;;;;;;;3.38;1.83;;;17.90;47.10;;;;;;4951589;28;20156;-82
2021/05/02 02:09:59;;;;;;;3.42;2.30;;;17.90;46.90;;;;;;4936097;28;20161;-83
2021/05/02 02:12:27;;;;;;;3.30;2.25;;;17.90;47.80;;;;;;4952229;28;20161;-82
2021/05/02 02:14:54;;;;;;;2.90;2.25;;;17.90;47.20;;;;;;4950592;28;20649;-83
2021/05/02 02:17:21;;;;;;;3.38;2.13;;;17.90;47.00;;;;;;4935675;28;20172;-83
2021/05/02 02:19:47;;;;;;;3.10;2.30;;;17.90;47.20;;;;;;4934888;28;20176;-82
2021/05/02 02:22:15;;;;;;;2.97;2.22;;;17.90;47.10;;;;;;4935573;28;20214;-83
2021/05/02 02:24:46;;;;;;;3.95;2.20;;;17.90;47.30;;;;;;4951333;28;20172;-82
2021/05/02 02:27:13;;;;;;;2.58;2.20;;;17.90;47.20;;;;;;4951545;28;20153;-83
2021/05/02 02:29:42;;;;;;;2.40;2.20;;;17.90;47.20;;;;;;4935182;28;20161;-83
2021/05/02 02:32:09;;;;;;;2.67;2.22;;;17.90;47.30;;;;;;4950873;28;20260;-82
2021/05/02 02:34:42;;;;;;;2.20;2.00;;;17.80;47.10;;;;;;4951810;28;20287;-82
2021/05/02 02:37:28;;;;;;;2.50;1.85;;;17.90;47.20;;;;;;4966790;28;20498;-82
2021/05/02 02:40:00;;;;;;;2.40;1.95;;;17.90;47.10;;;;;;4949592;28;20165;-82
2021/05/02 02:42:27;;;;;;;2.92;2.10;;;17.90;47.00;;;;;;4950953;28;20173;-82
2021/05/02 02:45:05;;;;;;;2.22;2.03;;;17.90;47.00;;;;;;4950777;28;20176;-83
2021/05/02 02:47:36;;;;;;;2.72;2.30;;;17.90;47.00;;;;;;4950598;28;20183;-83
2021/05/02 02:50:04;;;;;;;2.15;1.92;;;17.90;47.30;;;;;;4950511;28;20176;-84
2021/05/02 02:52:30;;;;;;;3.60;2.40;;;17.90;47.10;;;;;;4934484;28;20196;-82
2021/05/02 02:55:04;;;;;;;2.22;2.00;;;17.90;47.00;;;;;;4949901;28;20189;-82
2021/05/02 02:57:51;;;;;;;4.05;2.22;;;17.90;47.20;;;;;;4951184;28;20237;-82
2021/05/02 03:00:23;;;;;;;2.00;1.80;;;17.90;47.10;;;;;;4984539;28;20165;-82
2021/05/02 03:03:03;;;;;;;2.60;2.08;;;17.80;47.30;;;;;;4933691;28;20235;-83
2021/05/02 03:05:29;;;;;;;2.90;2.10;;;17.80;47.30;;;;;;4950294;28;20161;-82
2021/05/02 03:07:57;;;;;;;3.35;2.47;;;17.90;47.20;;;;;;4933259;28;20178;-82
2021/05/02 03:10:23;;;;;;;2.58;2.08;;;17.90;47.20;;;;;;4966175;28;20168;-82
2021/05/02 03:12:50;;;;;;;3.65;2.08;;;17.80;47.20;;;;;;4949644;28;20203;-83
2021/05/02 03:15:16;;;;;;;2.40;2.00;;;17.90;47.20;;;;;;4949189;28;20203;-82
2021/05/02 03:17:47;;;;;;;2.70;1.98;;;17.90;47.30;;;;;;4933948;28;20173;-83
2021/05/02 03:20:14;;;;;;;3.08;2.20;;;17.80;47.30;;;;;;4948671;28;20260;-83
2021/05/02 03:22:57;;;;;;;2.78;1.90;;;17.80;47.30;;;;;;4933865;28;20252;-83
2021/05/02 03:25:26;;;;;;;2.88;2.15;;;17.80;47.30;;;;;;4949636;28;20201;-82
2021/05/02 03:28:21;;;;;;;2.30;2.10;;;17.80;47.30;;;;;;4965508;28;20157;-82
2021/05/02 03:30:47;;;;;;;3.10;2.30;;;17.80;47.20;;;;;;4949238;28;20184;-83
2021/05/02 03:33:16;;;;;;;2.40;2.05;;;17.80;47.30;;;;;;4949197;28;20541;-83
2021/05/02 03:35:45;;;;;;;2.92;1.90;;;17.80;47.20;;;;;;4983607;28;20185;-83
2021/05/02 03:38:50;;;;;;;2.25;2.00;;;17.80;47.20;;;;;;4933902;28;20205;-82
2021/05/02 03:41:18;;;;;;;3.25;2.30;;;17.80;47.30;;;;;;4944313;29;20305;-83
2021/05/02 03:43:51;;;;;;;2.22;2.03;;;17.80;47.30;;;;;;4929477;29;20165;-82
2021/05/02 03:46:25;;;;;;;2.85;2.47;;;17.80;46.90;;;;;;4944616;29;20257;-82
2021/05/02 03:49:17;;;;;;;4.38;2.25;;;17.80;47.20;;;;;;4930738;29;20161;-82
2021/05/02 03:52:04;;;;;;;2.75;1.90;;;17.80;47.00;;;;;;4944664;29;20181;-82
2021/05/02 03:54:52;;;;;;;2.20;2.00;;;17.90;47.00;;;;;;4959929;29;20185;-83
2021/05/02 03:57:19;;;;;;;2.97;2.20;;;17.80;47.80;;;;;;4944742;29;20166;-82
2021/05/02 03:59:45;;;;;;;4.63;2.20;;;17.80;47.20;;;;;;4928709;29;20161;-82
2021/05/02 04:02:12;;;;;;;3.65;1.90;;;17.80;47.20;;;;;;4912594;29;20232;-83
2021/05/02 04:04:55;;;;;;;2.47;2.28;;;17.80;47.20;;;;;;4944493;29;20692;-83
2021/05/02 04:07:22;;;;;;;2.70;2.45;;;17.80;47.20;;;;;;4944055;29;20572;-83
2021/05/02 04:09:50;;;;;;;2.40;2.20;;;17.80;47.20;;;;;;4928950;29;20166;-82
2021/05/02 04:12:22;;;;;;;2.30;2.10;;;17.80;47.10;;;;;;4944825;29;20223;-83
2021/05/02 04:14:48;;;;;;;2.80;2.25;;;17.80;47.10;;;;;;4928726;29;20203;-82
2021/05/02 04:17:15;;;;;;;2.85;2.15;;;17.80;47.20;;;;;;4919927;28;20636;-83
2021/05/02 04:19:45;;;;;;;3.33;2.13;;;17.80;47.10;;;;;;4933191;28;20172;-82
2021/05/02 04:22:18;;;;;;;2.30;2.00;;;17.80;47.10;;;;;;4949669;28;20161;-82
2021/05/02 04:24:46;;;;;;;2.85;2.30;;;17.80;47.10;;;;;;4948798;28;20161;-83
2021/05/02 04:27:13;;;;;;;4.07;2.33;;;17.80;47.00;;;;;;4964725;28;20242;-82
2021/05/02 04:29:39;;;;;;;2.28;2.05;;;17.80;47.10;;;;;;4932348;28;20173;-82
2021/05/02 04:32:06;;;;;;;2.78;2.17;;;17.80;47.00;;;;;;4948576;28;20165;-82
2021/05/02 04:34:34;;;;;;;2.58;2.00;;;17.80;47.00;;;;;;4948466;28;20623;-82
2021/05/02 04:37:00;;;;;;;2.38;2.10;;;17.80;47.00;;;;;;4932287;28;20676;-82
2021/05/02 04:39:26;;;;;;;2.35;2.00;;;17.90;46.90;;;;;;4964301;28;20196;-83
2021/05/02 04:41:53;;;;;;;3.30;2.08;;;17.90;47.10;;;;;;4948384;28;20215;-82
2021/05/02 04:44:19;;;;;;;2.63;2.20;;;17.80;47.20;;;;;;4947852;28;20168;-83
2021/05/02 04:46:44;;;;;;;2.50;2.17;;;17.80;47.20;;;;;;4963092;28;20165;-82
2021/05/02 04:49:10;;;;;;;3.15;2.20;;;17.80;47.00;;;;;;4946507;28;20160;-82
2021/05/02 04:51:42;;;;;;;2.20;2.00;;;17.80;47.00;;;;;;4944998;28;20620;-82
2021/05/02 04:54:08;;;;;;;2.55;1.92;;;17.80;46.90;;;;;;4944255;28;20205;-82
2021/05/02 04:56:34;;;;;;;2.47;2.10;;;17.80;47.10;;;;;;4960248;28;20185;-83
2021/05/02 04:59:03;;;;;;;2.85;2.10;;;17.90;47.00;;;;;;4928303;28;20171;-82
2021/05/02 05:01:29;;;;;;;2.25;1.83;;;17.80;47.00;;;;;;4945562;28;20216;-83
2021/05/02 05:03:57;;;;;;;2.45;2.25;;;17.80;47.20;;;;;;4946969;28;20186;-83
2021/05/02 05:06:23;;;;;;;2.00;1.70;;;17.80;47.10;;;;;;4946611;28;20157;-83
2021/05/02 05:08:49;;;;;;;3.38;2.20;;;17.80;47.20;;;;;;4930517;28;20199;-83
2021/05/02 05:11:21;;;;;;;3.55;2.28;;;17.80;47.10;;;;;;4962340;28;20188;-82
2021/05/02 05:13:54;;;;;;;2.38;2.03;;;17.80;47.10;;;;;;4932374;28;20176;-84
2021/05/02 05:16:22;;;;;;;2.38;2.10;;;17.90;46.80;;;;;;4931538;28;20188;-83
2021/05/02 05:19:21;;;;;;;2.55;2.03;;;17.90;47.00;;;;;;4946872;28;20173;-84
2021/05/02 05:22:10;;;;;;;2.90;2.10;;;17.90;46.70;;;;;;4980264;28;20188;-83
2021/05/02 05:24:37;;;;;;;3.80;2.28;;;18.00;46.60;;;;;;4980335;28;20168;-83
2021/05/02 05:27:03;;;;;;;2.50;2.00;;;18.00;46.60;;;;;;4963319;28;20248;-83
2021/05/02 05:29:29;;;;;;;3.55;1.90;;;18.00;46.70;;;;;;4946463;28;20157;-83
2021/05/02 05:31:56;;;;;;;2.30;1.95;;;18.00;46.60;;;;;;4962789;28;20208;-83
2021/05/02 05:34:22;;;;;;;2.53;2.20;;;18.00;46.60;;;;;;4979731;28;20207;-83
2021/05/02 05:36:48;;;;;;;2.30;2.10;;;18.00;46.60;;;;;;4961849;28;20172;-83
2021/05/02 05:39:15;;;;;;;2.42;2.10;;;18.00;46.60;;;;;;4962469;28;20172;-83
2021/05/02 05:41:42;;;;;;;2.60;2.03;;;18.00;46.60;;;;;;4945552;28;20188;-83
2021/05/02 05:44:08;;;;;;;2.35;2.00;;;18.00;46.50;;;;;;4944748;28;20300;-83
2021/05/02 05:46:33;;;;;;;2.22;1.90;;;18.00;46.50;;;;;;4944839;28;20631;-83
2021/05/02 05:49:01;;;;;;;2.20;2.00;;;18.10;46.40;;;;;;4944474;28;20177;-83
2021/05/02 05:51:29;;;;;;;2.55;2.05;;;18.10;46.40;;;;;;4945331;28;20218;-83
2021/05/02 05:53:56;;;;;;;2.50;2.05;;;18.10;46.40;;;;;;4961762;28;20193;-83
2021/05/02 05:56:22;;;;;;;2.17;1.83;;;18.10;46.30;;;;;;4961454;28;20192;-83
2021/05/02 05:58:49;;;;;;;2.30;2.08;;;18.10;46.40;;;;;;4935611;29;20629;-83
2021/05/02 06:01:14;;;;;;;2.80;1.75;;;18.10;46.40;;;;;;4927086;29;20259;-83
2021/05/02 06:03:44;;;;;;;2.95;2.20;;;18.10;46.40;;;;;;4947209;29;20189;-83
2021/05/02 06:06:11;;;;;;;2.58;2.00;;;18.10;46.20;;;;;;4930599;29;20229;-83
2021/05/02 06:08:39;;;;;;;2.40;2.17;;;18.10;46.30;;;;;;4944819;29;20149;-83
2021/05/02 06:11:07;;;;;;;3.17;1.98;;;18.10;46.10;;;;;;4942500;29;20609;-83
2021/05/02 06:13:35;;;;;;;2.70;1.98;;;18.10;46.00;;;;;;4943398;29;20157;-83
2021/05/02 06:16:02;;;;;;;2.35;2.05;;;18.10;46.10;;;;;;4945106;29;20170;-83
2021/05/02 06:18:28;;;;;;;2.80;2.10;;;18.20;45.80;;;;;;4945684;29;20229;-83
2021/05/02 06:20:58;;;;;;;3.30;1.98;;;18.20;45.90;;;;;;4928595;29;20169;-83
2021/05/02 06:23:24;;;;;;;2.15;1.95;;;18.10;45.70;;;;;;4945520;29;20180;-83
2021/05/02 06:25:58;;;;;;;3.63;2.13;;;18.10;45.80;;;;;;4929832;29;20704;-83
2021/05/02 06:28:27;;;;;;;2.00;1.77;;;18.10;45.80;;;;;;4946654;29;20153;-83
2021/05/02 06:31:01;;;;;;;4.47;2.08;;;18.20;45.80;;;;;;4946366;29;20168;-83
2021/05/02 06:33:29;;;;;;;2.58;2.22;;;18.20;45.70;;;;;;4930347;29;20157;-83
2021/05/02 06:36:06;;;;;;;2.30;1.90;;;18.20;45.90;;;;;;4947557;29;20186;-83
2021/05/02 06:38:45;;;;;;;2.42;2.00;;;18.20;45.60;;;;;;4930890;29;20173;-83
2021/05/02 06:41:44;;;;;;;2.90;2.10;;;18.20;46.00;;;;;;4930150;29;20169;-83
2021/05/02 06:44:11;;;;;;;2.95;2.22;;;18.10;45.80;;;;;;4888371;29;20191;-83
2021/05/02 06:46:46;;;;;;;2.33;1.92;;;18.20;45.90;;;;;;4886215;29;20160;-82
2021/05/02 06:49:14;;;;;;;2.35;2.00;;;18.20;45.80;;;;;;4884013;29;20654;-82
2021/05/02 06:51:40;;;;;;;3.92;1.98;;;18.10;45.70;;;;;;4899612;29;20288;-82
2021/05/02 06:54:06;;;;;;;2.83;1.90;;;18.10;46.00;;;;;;4884008;29;20275;-82
2021/05/02 06:56:35;;;;;;;2.10;1.90;;;18.10;46.00;;;;;;4900452;29;20654;-82
2021/05/02 06:59:00;;;;;;;3.17;2.17;;;18.10;45.60;;;;;;4884679;29;20174;-82
2021/05/02 07:01:26;;;;;;;2.78;1.88;;;18.20;45.70;;;;;;4899684;29;20219;-83
2021/05/02 07:03:53;;;;;;;2.78;2.20;;;18.20;45.70;;;;;;4899837;29;20211;-82
2021/05/02 07:06:20;;;;;;;2.72;2.10;;;18.20;45.40;;;;;;4899845;29;20585;-82
2021/05/02 07:08:46;;;;;;;2.92;2.30;;;18.20;45.70;;;;;;4899418;29;20167;-82
2021/05/02 07:11:12;;;;;;;3.35;1.98;;;18.20;45.50;;;;;;4884282;29;20619;-82
2021/05/02 07:13:38;;;;;;;3.28;2.08;;;18.30;45.20;;;;;;4883127;29;20186;-83
2021/05/02 07:16:04;;;;;;;2.85;2.05;;;18.30;45.20;;;;;;4884079;29;20654;-82
2021/05/02 07:18:36;;;;;;;2.42;2.00;;;18.30;45.20;;;;;;4899922;29;20167;-82
2021/05/02 07:21:02;;;;;;;2.22;2.03;;;18.30;45.40;;;;;;4939532;29;20190;-83
2021/05/02 07:23:30;;;;;;;2.25;2.05;;;18.30;45.30;;;;;;4939462;29;20243;-82
2021/05/02 07:25:58;;;;;;;2.42;1.80;;;18.30;45.30;;;;;;4939849;29;20166;-82
2021/05/02 07:28:24;;;;;;;2.92;2.20;;;18.30;45.30;;;;;;4923872;29;20170;-83
2021/05/02 07:30:52;;;;;;;2.20;2.00;;;18.30;45.90;;;;;;4922079;29;20634;-83
2021/05/02 07:33:23;;;;;;;4.80;2.38;;;18.30;45.40;;;;;;4922513;29;20189;-83
2021/05/02 07:35:49;;;;;;;2.95;2.03;;;18.30;45.20;;;;;;4938274;29;20550;-82
2021/05/02 07:38:15;;;;;;;2.45;2.25;;;18.30;45.30;;;;;;4923465;29;20530;-83
2021/05/02 07:40:42;;;;;;;2.42;2.15;;;18.30;45.30;;;;;;4939481;29;20250;-83
2021/05/02 07:43:11;;;;;;;3.42;2.13;;;18.30;45.10;;;;;;4940321;29;20169;-82
2021/05/02 07:45:37;;;;;;;2.63;2.25;;;18.40;45.70;;;;;;4942969;29;20166;-83
2021/05/02 07:48:03;;;;;;;2.97;1.92;;;18.40;45.10;;;;;;4943856;29;20165;-83
2021/05/02 07:50:39;;;;;;;3.22;2.15;;;18.40;45.30;;;;;;4927380;29;20193;-83
2021/05/02 07:53:05;;;;;;;2.42;2.00;;;18.30;45.00;;;;;;4940511;29;20157;-82
2021/05/02 07:55:31;;;;;;;2.30;2.08;;;18.30;45.20;;;;;;4938056;29;20203;-82
2021/05/02 07:57:57;;;;;;;1.95;1.75;;;18.30;45.20;;;;;;4937466;29;20170;-82
2021/05/02 08:00:23;;;;;;;3.55;2.25;;;18.40;45.20;;;;;;4938660;29;20512;-81
2021/05/02 08:02:48;;;;;;;2.30;2.10;;;18.40;45.10;;;;;;4923212;29;20241;-82
2021/05/02 08:05:23;;;;;;;3.80;2.40;;;18.40;45.20;;;;;;4939851;29;20532;-83
2021/05/02 08:07:49;;;;;;;2.42;1.92;;;18.30;45.20;;;;;;4925539;29;20260;-82
2021/05/02 08:10:23;;;;;;;2.45;2.00;;;18.30;45.20;;;;;;4921236;29;20217;-82
2021/05/02 08:13:32;;;;;;;2.17;1.80;;;18.30;45.30;;;;;;4936891;29;20169;-82
2021/05/02 08:16:08;;;;;;;2.22;1.80;;;18.30;45.30;;;;;;4931970;29;20223;-82
2021/05/02 08:18:43;;;;;;;2.47;2.00;;;18.30;45.30;;;;;;4942099;29;20272;-82
2021/05/02 08:21:23;;;;;;;2.30;2.10;;;18.30;46.00;;;;;;4957613;29;20225;-83
2021/05/02 08:24:36;;;;;;;3.03;2.13;;;18.30;45.20;;;;;;4954955;29;20195;-82
2021/05/02 08:27:37;;;;;;;2.03;1.90;;;18.30;45.30;;;;;;4950969;29;20216;-82
2021/05/02 08:30:18;;;;;;;2.85;2.35;;;18.40;45.00;;;;;;4958492;28;20162;-82
2021/05/02 08:33:13;;;;;;;2.20;2.00;;;18.40;45.20;;;;;;4926796;29;20170;-82
2021/05/02 08:35:55;;;;;;;2.10;1.90;;;18.40;45.10;;;;;;4958697;28;20213;-82
2021/05/02 08:38:31;;;;;;;2.60;2.08;;;18.30;45.10;;;;;;4929784;29;20181;-83
2021/05/02 08:41:07;;;;;;;2.30;2.10;;;18.30;45.30;;;;;;4943087;29;20240;-82
2021/05/02 08:43:34;;;;;;;3.15;1.92;;;18.30;45.40;;;;;;4941383;29;20150;-82
2021/05/02 08:46:00;;;;;;;2.03;1.83;;;18.30;45.30;;;;;;4939028;29;20637;-82
2021/05/02 08:48:32;;;;;;;2.80;2.25;;;18.40;45.20;;;;;;4939997;29;20165;-82
2021/05/02 08:51:03;;;;;;;2.10;1.90;;;18.30;45.30;;;;;;4944104;29;20238;-83
2021/05/02 08:53:30;;;;;;;2.22;1.80;;;18.40;45.40;;;;;;4935717;29;20560;-83
2021/05/02 08:56:18;;;;;;;2.13;1.92;;;18.40;45.20;;;;;;4938494;29;20240;-83
2021/05/02 08:58:46;;;;;;;2.30;2.10;;;18.30;45.20;;;;;;4939222;29;20185;-83
2021/05/02 09:01:15;;;;;;;4.00;2.00;;;18.30;45.40;;;;;;4938071;29;20233;-82
2021/05/02 09:03:47;;;;;;;2.88;2.05;;;18.30;45.20;;;;;;4951295;29;20222;-84
2021/05/02 09:06:33;;;;;;;2.20;2.00;;;18.40;45.40;;;;;;4940317;29;20174;-83
2021/05/02 09:09:11;;;;;;;3.60;2.08;;;18.30;45.50;;;;;;4938273;29;20166;-81
2021/05/02 09:11:44;;;;;;;2.72;2.00;;;18.30;45.70;;;;;;4934574;29;20170;-83
2021/05/02 09:14:53;;;;;;;3.20;1.85;;;18.30;46.40;;;;;;4951538;29;20217;-83
2021/05/02 09:17:31;;;;;;;2.38;2.17;;;18.40;46.00;;;;;;4952641;29;20170;-84
2021/05/02 09:20:02;;;;;;;1.95;1.85;;;18.40;45.90;;;;;;4939046;29;20357;-84
2021/05/02 09:22:28;;;;;;;2.58;2.13;;;18.40;45.80;;;;;;4938613;29;20166;-84
2021/05/02 09:25:02;;;;;;;3.00;1.80;;;18.40;45.60;;;;;;4938978;29;20169;-84
2021/05/02 09:27:32;;;;;;;2.63;2.13;;;18.40;45.70;;;;;;4955263;29;20151;-84
2021/05/02 09:30:18;;;;;;;2.90;2.30;;;18.40;45.80;;;;;;4939660;29;20568;-84
2021/05/02 09:32:48;;;;;;;2.50;2.22;;;18.30;45.70;;;;;;4938397;29;20170;-84
2021/05/02 09:35:46;;;;;;;4.57;1.98;;;18.30;45.40;;;;;;4939650;29;20190;-84
2021/05/02 09:38:16;;;;;;;3.55;1.90;;;18.30;45.60;;;;;;4943201;29;20182;-83
2021/05/02 09:40:56;;;;;;;3.47;1.98;;;18.30;45.50;;;;;;4939127;29;20193;-84
2021/05/02 09:43:44;;;;;;;3.72;1.90;;;18.40;45.60;;;;;;4939453;29;20221;-84
2021/05/02 09:46:24;;;;;;;3.58;1.92;;;18.30;45.60;;;;;;4939196;29;20158;-84
2021/05/02 09:52:18;;;;;;;3.67;2.03;;;18.40;45.70;;;;;;4956713;29;20166;-83
2021/05/02 09:58:38;;;;;;;2.25;2.05;;;18.40;45.70;;;;;;4976129;29;20378;-83
2021/05/02 10:01:48;;;;;;;3.08;2.10;;;18.40;45.70;;;;;;4961913;29;20189;-83
2021/05/02 10:04:18;;;;;;;4.22;2.13;;;18.40;45.80;;;;;;4972317;29;20197;-83
2021/05/02 10:07:01;;;;;;;3.13;2.50;;;18.40;46.00;;;;;;4940611;29;20222;-83
2021/05/02 10:09:30;;;;;;;3.65;2.13;;;18.40;46.10;;;;;;4954643;29;20185;-83
2021/05/02 10:12:00;;;;;;;2.85;2.22;;;18.40;46.20;;;;;;4940745;29;20169;-83
2021/05/02 10:14:27;;;;;;;3.83;2.10;;;18.40;46.10;;;;;;4939941;29;20205;-83
2021/05/02 10:20:15;;;;;;;2.85;2.00;;;18.40;46.10;;;;;;4971005;29;20233;-82
2021/05/02 10:22:42;;;;;;;2.22;2.00;;;18.30;46.20;;;;;;4940290;29;20173;-84
2021/05/02 10:25:18;;;;;;;2.60;2.10;;;18.40;47.00;;;;;;4953086;29;20237;-83
2021/05/02 10:27:54;;;;;;;3.00;2.25;;;18.40;46.20;;;;;;4957301;29;20153;-83
2021/05/02 10:30:38;;;;;;;6.80;2.20;;;18.40;46.30;;;;;;4969877;29;20177;-82
2021/05/02 10:33:09;;;;;;;2.55;2.20;;;18.40;46.40;;;;;;4938151;29;20161;-84
2021/05/02 10:35:58;;;;;;;3.95;2.08;;;18.40;46.40;;;;;;4936255;29;20201;-83
2021/05/02 10:38:54;;;;;;;4.05;2.28;;;18.50;46.30;;;;;;4941343;29;20201;-83
2021/05/02 10:41:32;;;;;;;3.47;2.20;;;18.40;46.30;;;;;;4971632;29;20174;-82
2021/05/02 10:46:54;;;;;;;3.22;1.90;;;18.50;46.40;;;;;;5546647;23;793899;-81
2021/05/02 10:57:49;;;;;;;2.77;2.00;;;18.60;46.20;;;;;;6084245;23;20416;-83
2021/05/02 11:00:16;;;;;;;3.55;1.90;;;18.50;46.10;;;;;;4949485;28;20205;-82
2021/05/02 11:02:45;;;;;;;3.50;1.98;;;18.60;46.10;;;;;;4953357;28;20219;-81
2021/05/02 11:05:15;;;;;;;2.75;1.90;;;18.60;46.10;;;;;;4940583;28;20185;-83
2021/05/02 11:07:56;;;;;;;2.78;2.20;;;18.60;46.10;;;;;;4930770;28;20176;-82
2021/05/02 11:14:28;;;;;;;3.63;2.10;;;18.60;46.30;;;;;;4976999;28;20176;-83
2021/05/02 11:17:14;;;;;;;2.47;2.08;;;18.50;46.30;;;;;;4941013;29;20228;-82
2021/05/02 11:20:06;;;;;;;2.85;2.22;;;18.60;46.40;;;;;;4956957;29;20161;-82
2021/05/02 11:22:52;;;;;;;3.20;1.95;;;18.50;46.30;;;;;;4940328;29;20162;-83
2021/05/02 11:25:18;;;;;;;4.70;2.30;;;18.60;46.10;;;;;;4939815;29;20520;-82
2021/05/02 11:27:55;;;;;;;3.08;2.20;;;18.60;46.20;;;;;;4940196;29;20486;-81
2021/05/02 11:30:46;;;;;;;2.95;2.10;;;18.50;46.30;;;;;;4925125;29;20184;-84
2021/05/02 11:33:32;;;;;;;2.78;2.17;;;18.60;46.40;;;;;;4955124;28;20169;-83
2021/05/02 11:39:44;;;;;;;3.70;2.20;;;18.60;46.50;;;;;;4947998;29;20184;-84
2021/05/02 11:42:10;;;;;;;4.32;2.08;;;18.60;46.40;;;;;;4955636;29;20182;-83
2021/05/02 11:44:50;;;;;;;4.78;2.20;;;18.60;46.40;;;;;;4923453;29;20618;-83
2021/05/02 11:47:24;;;;;;;3.70;2.10;;;18.60;46.40;;;;;;4939633;29;20220;-83
2021/05/02 11:50:11;;;;;;;3.70;2.30;;;18.60;46.50;;;;;;4939400;29;20577;-83
2021/05/02 11:53:12;;;;;;;2.92;1.98;;;18.60;46.30;;;;;;4924942;29;20593;-83
2021/05/02 11:55:42;;;;;;;3.03;2.17;;;18.60;46.30;;;;;;4955308;29;20800;-83
2021/05/02 11:58:14;;;;;;;3.50;2.00;;;18.60;46.30;;;;;;4939077;29;20161;-83
2021/05/02 12:00:53;;;;;;;3.38;2.28;;;18.60;46.40;;;;;;4907199;29;20185;-83
2021/05/02 12:03:39;;;;;;;2.10;1.90;;;18.60;46.40;;;;;;4954995;29;20165;-81
2021/05/02 12:06:09;;;;;;;2.28;2.05;;;18.60;46.50;;;;;;4922366;29;20684;-83
2021/05/02 12:08:43;;;;;;;3.42;1.90;;;18.60;46.30;;;;;;4938875;29;20165;-83
2021/05/02 12:11:15;;;;;;;4.15;1.70;;;18.60;46.70;;;;;;4941252;29;20229;-83
2021/05/02 12:13:45;;;;;;;3.53;2.17;;;18.60;46.50;;;;;;4934165;29;20260;-83
2021/05/02 12:16:27;;;;;;;3.67;2.10;;;18.60;46.40;;;;;;4959039;29;20204;-83
2021/05/02 12:19:07;;;;;;;2.40;2.20;;;18.60;46.30;;;;;;4927342;29;20173;-82
2021/05/02 12:21:41;;;;;;;5.18;2.13;;;18.60;46.60;;;;;;4928543;29;20227;-83
2021/05/02 12:24:28;;;;;;;4.18;2.13;;;18.60;46.60;;;;;;4944953;29;20165;-82
2021/05/02 12:27:10;;;;;;;3.95;2.38;;;18.60;46.50;;;;;;4944587;29;20157;-82
2021/05/02 12:29:42;;;;;;;3.13;2.45;;;18.60;46.50;;;;;;4944213;29;20177;-82
2021/05/02 12:32:10;;;;;;;4.80;2.17;;;18.60;46.30;;;;;;4960542;29;20173;-83
2021/05/02 12:34:57;;;;;;;2.72;2.10;;;18.60;46.30;;;;;;4959545;29;20192;-83
2021/05/02 12:37:27;;;;;;;6.68;2.55;;;18.60;46.40;;;;;;4959129;29;20248;-83
2021/05/02 12:40:06;;;;;;;4.15;2.33;;;18.60;46.40;;;;;;4963996;29;20158;-82
2021/05/02 12:42:34;;;;;;;4.82;2.08;;;18.60;46.30;;;;;;4962583;29;20169;-82
2021/05/02 12:45:05;;;;;;;3.60;2.40;;;18.60;46.50;;;;;;4948161;29;20188;-81
2021/05/02 12:47:51;;;;;;;5.50;2.30;;;18.60;46.50;;;;;;4962214;28;20158;-81
2021/05/02 12:50:20;;;;;;;3.80;2.17;;;18.60;46.40;;;;;;4965024;29;20185;-83
2021/05/02 12:52:48;;;;;;;3.38;2.00;;;18.60;46.50;;;;;;4961473;29;20234;-82
2021/05/02 12:55:21;;;;;;;4.47;2.28;;;18.70;46.30;;;;;;4946340;29;21059;-82
2021/05/02 12:57:57;;;;;;;3.47;1.90;;;18.70;47.10;;;;;;4960545;29;20578;-83
2021/05/02 13:00:30;;;;;;;5.07;2.20;;;18.60;46.40;;;;;;4961006;28;20640;-82
2021/05/02 13:02:57;;;;;;;4.15;2.22;;;18.60;46.40;;;;;;4946028;28;20230;-83
2021/05/02 13:05:34;;;;;;;3.47;2.10;;;18.60;46.50;;;;;;4980540;28;20243;-83
2021/05/02 13:08:14;;;;;;;4.60;2.20;;;18.70;46.40;;;;;;4945269;28;20535;-83
2021/05/02 13:11:24;;;;;;;4.97;2.05;;;18.60;46.50;;;;;;4930911;28;20179;-82
2021/05/02 13:14:30;;;;;;;5.40;2.40;;;18.70;46.50;;;;;;4961547;28;20173;-83
2021/05/02 13:17:13;;;;;;;5.50;2.33;;;18.60;46.30;;;;;;4888010;29;20194;-82
2021/05/02 13:19:47;;;;;;;3.65;2.05;;;18.70;46.50;;;;;;4903600;29;20705;-83
2021/05/02 13:22:31;;;;;;;6.45;2.03;;;18.70;46.30;;;;;;4903087;29;20185;-82
2021/05/02 13:25:07;;;;;;;5.28;2.30;;;18.60;46.50;;;;;;4904467;29;20170;-82
2021/05/02 13:27:37;;;;;;;2.78;2.05;;;18.70;46.60;;;;;;4903863;29;20179;-84
2021/05/02 13:30:08;;;;;;;4.43;2.20;;;18.70;46.60;;;;;;4908219;29;20197;-83
2021/05/02 13:33:07;;;;;;;3.80;2.33;;;18.70;46.60;;;;;;4872256;29;20190;-83
2021/05/02 13:35:44;;;;;;;7.05;2.33;;;18.70;46.50;;;;;;4901640;29;20279;-82
2021/05/02 13:38:13;;;;;;;4.13;2.50;;;18.70;46.50;;;;;;4903215;29;20171;-83
2021/05/02 13:40:39;;;;;;;6.85;2.88;;;18.70;46.60;;;;;;4887175;29;20187;-83
2021/05/02 13:43:08;;;;;;;10.98;2.20;;;18.70;46.60;;;;;;4888917;29;20247;-83
2021/05/02 13:45:41;;;;;;;7.90;2.17;;;18.80;46.50;;;;;;4902503;29;20262;-82
2021/05/02 13:48:12;;;;;;;3.88;2.40;;;18.80;46.70;;;;;;4900372;29;20192;-82
2021/05/02 13:50:38;;;;;;;2.80;1.80;;;18.80;46.60;;;;;;4885095;29;20160;-83
2021/05/02 13:53:05;;;;;;;8.88;2.25;;;18.80;46.20;;;;;;4920627;29;20240;-82
2021/05/02 13:55:31;;;;;;;6.65;2.10;;;18.90;46.60;;;;;;4927592;29;20209;-83
2021/05/02 13:58:17;;;;;;;6.85;2.53;;;18.80;46.70;;;;;;4943210;29;20617;-82
2021/05/02 14:00:51;;;;;;;17.35;2.88;;;18.90;46.40;;;;;;4962441;29;20169;-83
2021/05/02 14:03:27;;;;;;;11.38;2.47;;;18.80;46.50;;;;;;4954962;29;20188;-83
2021/05/02 14:06:13;;;;;;;9.65;2.35;;;18.80;46.40;;;;;;4955485;29;20173;-84
2021/05/02 14:09:36;;;;;;;7.32;2.60;;;18.80;46.60;;;;;;4941640;29;20158;-83
2021/05/02 14:12:07;;;;;;;7.28;2.30;;;18.90;46.50;;;;;;4912298;29;20197;-83
2021/05/02 14:14:36;;;;;;;8.60;2.38;;;18.80;46.60;;;;;;4903069;29;20315;-82
2021/05/02 14:17:25;;;;;;;7.18;3.15;;;18.90;46.60;;;;;;4904000;29;20655;-83
2021/05/02 14:19:53;;;;;;;5.22;2.13;;;18.80;46.50;;;;;;4903334;29;20162;-84
2021/05/02 14:22:20;;;;;;;15.98;3.80;;;18.80;46.50;;;;;;4903533;29;20183;-84
2021/05/02 14:24:48;;;;;;;10.27;2.65;;;18.80;46.60;;;;;;4903173;29;20170;-84
2021/05/02 14:27:16;;;;;;;11.45;3.28;;;18.80;46.40;;;;;;4888584;29;20163;-84
2021/05/02 14:29:43;;;;;;;8.10;2.85;;;18.90;46.60;;;;;;4905695;29;20182;-84
2021/05/02 14:32:14;;;;;;;17.13;2.90;;;18.80;46.60;;;;;;4906880;29;20298;-83
2021/05/02 14:34:42;;;;;;;8.68;2.90;;;18.80;46.70;;;;;;4891391;29;20222;-83
2021/05/02 14:37:14;;;;;;;7.82;2.30;;;18.90;46.60;;;;;;4896491;29;20266;-83
2021/05/02 14:39:50;;;;;;;7.93;2.70;;;19.00;46.50;;;;;;4919304;29;20185;-83
2021/05/02 14:42:19;;;;;;;9.10;2.63;;;18.90;46.70;;;;;;4926547;29;20193;-83
2021/05/02 14:44:45;;;;;;;7.95;2.60;;;18.90;46.60;;;;;;4921878;29;20669;-82
2021/05/02 14:47:11;;;;;;;10.13;2.72;;;18.90;46.80;;;;;;4892088;29;20163;-83